Time;durP1;ratioP1;P1;durP2;ratioP2;P2;SDS_P1;SDS_P2;PMS_P1;PMS_P2;Temp;Humidity;BMP_temperature;BMP_pressure;BME280_temperature;BME280_humidity;BME280_pressure;Samples;Min_cycle;Max_cycle;Signal;HPM_P1;HPM_P2
2021/03/01 00:02:03;;;;;;;22.67;20.57;;;1.10;99.90;;;;;;4879483;29;20875;-73
2021/03/01 00:04:29;;;;;;;26.80;20.27;;;1.10;99.90;;;;;;4880919;29;20465;-72
2021/03/01 00:06:55;;;;;;;23.13;20.63;;;1.10;99.90;;;;;;4880794;29;20469;-72
2021/03/01 00:09:21;;;;;;;20.67;18.60;;;1.20;99.90;;;;;;4880482;29;20494;-72
2021/03/01 00:11:48;;;;;;;33.93;24.47;;;1.10;99.90;;;;;;4880721;29;20470;-73
2021/03/01 00:14:15;;;;;;;21.63;19.67;;;1.10;99.90;;;;;;4880942;29;20464;-72
2021/03/01 00:16:41;;;;;;;21.90;19.60;;;1.20;99.90;;;;;;4880912;29;20462;-73
2021/03/01 00:19:07;;;;;;;24.90;21.33;;;1.30;99.90;;;;;;4880644;29;20488;-72
2021/03/01 00:21:34;;;;;;;24.10;21.50;;;1.20;99.90;;;;;;4880503;29;20521;-73
2021/03/01 00:24:00;;;;;;;22.10;19.97;;;1.10;99.90;;;;;;4880777;29;20459;-72
2021/03/01 00:26:26;;;;;;;21.23;19.00;;;1.10;99.90;;;;;;4880644;29;20456;-72
2021/03/01 00:28:52;;;;;;;27.63;22.63;;;1.00;99.90;;;;;;4880238;29;20455;-75
2021/03/01 00:31:20;;;;;;;23.90;20.33;;;1.00;99.90;;;;;;4880587;29;20460;-73
2021/03/01 00:33:46;;;;;;;22.60;20.33;;;1.00;99.90;;;;;;4880362;29;20959;-73
2021/03/01 00:36:12;;;;;;;23.90;21.30;;;0.90;99.90;;;;;;4880234;29;20513;-73
2021/03/01 00:38:38;;;;;;;26.67;19.83;;;0.90;99.90;;;;;;4880106;29;20507;-74
2021/03/01 00:41:04;;;;;;;21.50;19.33;;;1.00;99.90;;;;;;4880111;29;20489;-74
2021/03/01 00:43:32;;;;;;;23.67;20.07;;;1.10;99.90;;;;;;4880043;29;20453;-73
2021/03/01 00:45:58;;;;;;;21.77;19.67;;;1.10;99.90;;;;;;4880361;29;20456;-73
2021/03/01 00:48:25;;;;;;;21.27;18.97;;;1.20;99.90;;;;;;4879954;29;20469;-73
2021/03/01 00:50:52;;;;;;;23.53;21.20;;;1.20;99.90;;;;;;4879963;29;20516;-73
2021/03/01 00:53:25;;;;;;;22.23;19.37;;;1.20;99.90;;;;;;4879889;29;20463;-73
2021/03/01 00:55:52;;;;;;;20.73;18.53;;;1.20;99.90;;;;;;4879879;29;20460;-73
2021/03/01 00:58:18;;;;;;;21.83;19.53;;;1.20;99.90;;;;;;4879707;29;20506;-73
2021/03/01 01:00:45;;;;;;;21.77;19.70;;;1.20;99.90;;;;;;4879849;29;20465;-73
2021/03/01 01:03:12;;;;;;;22.37;19.17;;;1.20;99.90;;;;;;4879743;29;20458;-73
2021/03/01 01:05:39;;;;;;;23.17;20.80;;;1.20;99.90;;;;;;4879742;29;20479;-73
2021/03/01 01:08:06;;;;;;;23.13;20.67;;;1.30;99.90;;;;;;4879541;29;20994;-73
2021/03/01 01:10:32;;;;;;;25.53;21.40;;;1.30;99.90;;;;;;4879753;29;20513;-73
2021/03/01 01:12:58;;;;;;;21.53;19.53;;;1.30;99.90;;;;;;4878158;29;20464;-74
2021/03/01 01:15:25;;;;;;;22.53;20.10;;;1.30;99.90;;;;;;4879675;29;20825;-72
2021/03/01 01:17:51;;;;;;;24.23;20.67;;;1.30;99.90;;;;;;4879492;29;20497;-72
2021/03/01 01:20:18;;;;;;;21.47;19.17;;;1.20;99.90;;;;;;4879385;29;20462;-72
2021/03/01 01:22:45;;;;;;;21.37;19.10;;;1.20;99.90;;;;;;4879632;29;20823;-72
2021/03/01 01:25:13;;;;;;;23.57;18.83;;;1.20;99.90;;;;;;4879379;29;20452;-72
2021/03/01 01:27:39;;;;;;;21.80;19.70;;;1.20;99.90;;;;;;4879397;29;20458;-73
2021/03/01 01:30:07;;;;;;;20.37;18.17;;;1.20;99.90;;;;;;4879521;29;20456;-73
2021/03/01 01:32:33;;;;;;;21.73;19.07;;;1.20;99.90;;;;;;4879259;29;20472;-72
2021/03/01 01:34:59;;;;;;;21.80;19.53;;;1.30;99.90;;;;;;4879231;29;20465;-73
2021/03/01 01:37:26;;;;;;;21.20;19.10;;;1.20;99.90;;;;;;4879077;29;20505;-73
2021/03/01 01:39:53;;;;;;;21.73;19.50;;;1.20;99.90;;;;;;4878836;29;20492;-73
2021/03/01 01:42:19;;;;;;;24.03;20.60;;;1.10;99.90;;;;;;4879260;29;20792;-74
2021/03/01 01:44:45;;;;;;;20.23;18.23;;;1.00;99.90;;;;;;4878851;29;20463;-72
2021/03/01 01:47:11;;;;;;;23.00;20.57;;;0.90;99.90;;;;;;4879159;29;20817;-73
2021/03/01 01:49:37;;;;;;;20.87;18.67;;;0.90;99.90;;;;;;4879044;29;20471;-74
2021/03/01 01:52:04;;;;;;;20.37;18.37;;;0.90;99.90;;;;;;4878874;29;20956;-73
2021/03/01 01:54:30;;;;;;;23.57;21.40;;;0.90;99.90;;;;;;4878936;29;20921;-72
2021/03/01 01:56:57;;;;;;;20.03;18.20;;;0.80;99.90;;;;;;4879106;29;20460;-73
2021/03/01 01:59:25;;;;;;;20.70;18.27;;;0.80;99.90;;;;;;4878553;29;20455;-72
2021/03/01 02:01:52;;;;;;;23.03;19.43;;;0.80;99.90;;;;;;4878610;29;20561;-72
2021/03/01 02:04:24;;;;;;;26.63;19.70;;;0.70;99.90;;;;;;4878402;29;20541;-73
2021/03/01 02:07:00;;;;;;;22.50;20.23;;;0.70;99.90;;;;;;4878359;29;20461;-73
2021/03/01 02:09:34;;;;;;;21.40;19.13;;;0.60;99.90;;;;;;4878898;29;20483;-73
2021/03/01 02:12:12;;;;;;;21.57;19.33;;;0.60;99.90;;;;;;4878586;29;20449;-73
2021/03/01 02:14:58;;;;;;;20.77;18.90;;;0.60;99.90;;;;;;4878407;29;20457;-73
2021/03/01 02:17:24;;;;;;;20.50;18.57;;;0.60;99.90;;;;;;4878135;29;20585;-73
2021/03/01 02:19:50;;;;;;;23.27;19.80;;;0.40;99.90;;;;;;4878426;29;20452;-73
2021/03/01 02:22:17;;;;;;;22.70;20.33;;;0.20;99.90;;;;;;4878411;29;20467;-73
2021/03/01 02:24:47;;;;;;;22.83;20.00;;;0.10;99.90;;;;;;4877875;29;20459;-74
2021/03/01 02:27:21;;;;;;;25.07;22.13;;;0.10;99.90;;;;;;4877945;29;20898;-73
2021/03/01 02:29:47;;;;;;;25.47;21.33;;;0.10;99.90;;;;;;4877995;29;20467;-73
2021/03/01 02:32:15;;;;;;;26.43;22.97;;;0.20;99.90;;;;;;4878190;29;20479;-73
2021/03/01 02:34:43;;;;;;;24.43;21.70;;;0.20;99.90;;;;;;4878205;29;20462;-73
2021/03/01 02:37:13;;;;;;;24.67;22.20;;;0.30;99.90;;;;;;4877546;29;20481;-72
2021/03/01 02:39:44;;;;;;;24.20;21.90;;;0.40;99.90;;;;;;4877945;29;20550;-73
2021/03/01 02:42:13;;;;;;;26.83;23.17;;;0.40;99.90;;;;;;4878053;29;20440;-73
2021/03/01 02:44:40;;;;;;;22.97;20.57;;;0.50;99.90;;;;;;4877618;29;20873;-73
2021/03/01 02:47:07;;;;;;;22.40;20.00;;;0.60;99.90;;;;;;4877506;29;20974;-73
2021/03/01 02:49:35;;;;;;;22.73;19.67;;;0.60;99.90;;;;;;4877562;29;20461;-73
2021/03/01 02:52:02;;;;;;;22.37;19.97;;;0.60;99.90;;;;;;4877297;29;20460;-73
2021/03/01 02:54:29;;;;;;;26.23;21.83;;;0.60;99.90;;;;;;4877583;29;20463;-74
2021/03/01 02:56:57;;;;;;;23.97;21.47;;;0.60;99.90;;;;;;4877637;29;20453;-73
2021/03/01 02:59:25;;;;;;;22.63;20.50;;;0.50;99.90;;;;;;4877374;29;20500;-74
2021/03/01 03:01:51;;;;;;;26.30;23.40;;;0.40;99.90;;;;;;4877593;29;20538;-73
2021/03/01 03:04:19;;;;;;;24.73;22.07;;;0.40;99.90;;;;;;4877494;29;20854;-73
2021/03/01 03:06:47;;;;;;;25.03;22.43;;;0.40;99.90;;;;;;4877693;29;20499;-72
2021/03/01 03:09:14;;;;;;;22.47;20.47;;;0.40;99.90;;;;;;4877696;29;20461;-72
2021/03/01 03:11:42;;;;;;;25.90;21.00;;;0.30;99.90;;;;;;4877596;29;20456;-72
2021/03/01 03:14:13;;;;;;;25.50;22.13;;;0.20;99.90;;;;;;4877267;29;20560;-72
2021/03/01 03:16:40;;;;;;;27.27;21.13;;;0.20;99.90;;;;;;4877182;29;20838;-73
2021/03/01 03:19:06;;;;;;;21.97;19.83;;;0.10;99.90;;;;;;4877171;29;20897;-73
2021/03/01 03:21:33;;;;;;;29.13;23.67;;;-0.10;99.90;;;;;;4877386;29;20453;-73
2021/03/01 03:24:00;;;;;;;23.83;21.30;;;-0.10;99.90;;;;;;4877088;29;20554;-73
2021/03/01 03:26:26;;;;;;;23.43;21.13;;;0.00;99.90;;;;;;4877300;29;20456;-71
2021/03/01 03:28:52;;;;;;;26.30;23.30;;;-0.10;99.90;;;;;;4877068;29;20456;-73
2021/03/01 03:31:19;;;;;;;26.40;23.30;;;-0.10;99.90;;;;;;4877065;29;20465;-73
2021/03/01 03:33:46;;;;;;;32.83;24.20;;;-0.10;99.90;;;;;;4877087;29;20468;-73
2021/03/01 03:36:13;;;;;;;25.60;23.00;;;0.00;99.90;;;;;;4876322;29;20809;-72
2021/03/01 03:38:43;;;;;;;26.00;23.10;;;0.10;99.90;;;;;;4877320;29;20490;-72
2021/03/01 03:41:12;;;;;;;28.43;21.60;;;0.10;99.90;;;;;;4876922;29;20533;-73
2021/03/01 03:43:40;;;;;;;24.40;22.10;;;0.20;99.90;;;;;;4877071;29;20466;-72
2021/03/01 03:46:08;;;;;;;26.80;23.97;;;0.20;99.90;;;;;;4876918;29;20464;-71
2021/03/01 03:48:36;;;;;;;29.90;24.03;;;0.10;99.90;;;;;;4876865;29;20951;-72
2021/03/01 03:51:05;;;;;;;25.13;22.73;;;0.00;99.90;;;;;;4876764;29;20460;-73
2021/03/01 03:53:37;;;;;;;26.90;24.20;;;0.00;99.90;;;;;;4876845;29;20959;-71
2021/03/01 03:56:04;;;;;;;30.00;23.03;;;0.00;99.90;;;;;;4876833;29;20470;-72
2021/03/01 03:58:35;;;;;;;24.50;22.07;;;0.20;99.90;;;;;;4876760;29;20491;-73
2021/03/01 04:01:02;;;;;;;24.60;22.03;;;0.10;99.90;;;;;;4876792;29;20459;-72
2021/03/01 04:03:31;;;;;;;27.57;24.47;;;0.10;99.90;;;;;;4876669;29;20479;-72
2021/03/01 04:06:00;;;;;;;27.37;24.30;;;0.10;99.90;;;;;;4876621;29;21020;-72
2021/03/01 04:08:29;;;;;;;25.60;23.20;;;0.10;99.90;;;;;;4876952;29;20468;-72
2021/03/01 04:10:57;;;;;;;28.23;25.53;;;0.10;99.90;;;;;;4876832;29;20457;-73
2021/03/01 04:13:27;;;;;;;26.80;23.90;;;0.10;99.90;;;;;;4876574;29;20463;-73
2021/03/01 04:15:53;;;;;;;26.80;24.20;;;0.00;99.90;;;;;;4876417;29;20464;-73
2021/03/01 04:18:23;;;;;;;28.20;24.17;;;0.10;99.90;;;;;;4876396;29;20485;-72
2021/03/01 04:20:50;;;;;;;26.77;23.60;;;0.00;99.90;;;;;;4876478;29;20459;-73
2021/03/01 04:23:18;;;;;;;25.20;22.40;;;0.00;99.90;;;;;;4876649;29;20517;-74
2021/03/01 04:25:45;;;;;;;28.03;25.40;;;0.00;99.90;;;;;;4876339;29;20456;-73
2021/03/01 04:28:13;;;;;;;28.73;25.97;;;0.00;99.90;;;;;;4876766;29;20448;-73
2021/03/01 04:30:40;;;;;;;29.60;24.20;;;0.00;99.90;;;;;;4876683;29;20464;-73
2021/03/01 04:33:08;;;;;;;28.10;25.17;;;0.00;99.90;;;;;;4876307;29;20490;-74
2021/03/01 04:35:35;;;;;;;27.00;23.40;;;-0.10;99.90;;;;;;4875974;29;20991;-73
2021/03/01 04:38:01;;;;;;;26.57;23.63;;;-0.20;99.90;;;;;;4876497;29;20491;-73
2021/03/01 04:40:28;;;;;;;28.73;25.27;;;-0.20;99.90;;;;;;4876283;29;20484;-73
2021/03/01 04:42:55;;;;;;;38.50;24.60;;;-0.20;99.90;;;;;;4876571;29;20463;-73
2021/03/01 04:45:22;;;;;;;28.37;25.50;;;-0.30;99.90;;;;;;4876205;29;20460;-73
2021/03/01 04:47:50;;;;;;;28.97;26.03;;;-0.30;99.90;;;;;;4878235;29;20472;-73
2021/03/01 04:50:17;;;;;;;25.73;23.10;;;-0.30;99.90;;;;;;4879716;29;20468;-72
2021/03/01 04:52:45;;;;;;;28.17;25.13;;;-0.30;99.90;;;;;;4879773;29;20957;-74
2021/03/01 04:55:12;;;;;;;27.63;24.73;;;-0.30;99.90;;;;;;4879849;29;20464;-72
2021/03/01 04:57:40;;;;;;;26.70;24.03;;;-0.30;99.90;;;;;;4879316;29;20492;-72
2021/03/01 05:00:08;;;;;;;29.30;26.50;;;-0.40;99.90;;;;;;4879545;29;20766;-73
2021/03/01 05:02:39;;;;;;;27.20;24.40;;;-0.40;99.90;;;;;;4879519;29;20460;-73
2021/03/01 05:05:07;;;;;;;30.70;26.30;;;-0.40;99.90;;;;;;4879691;29;20484;-73
2021/03/01 05:07:35;;;;;;;31.00;27.70;;;-0.50;99.90;;;;;;4879430;29;20456;-73
2021/03/01 05:10:04;;;;;;;27.33;24.63;;;-0.50;99.90;;;;;;4879561;29;20463;-74
2021/03/01 05:12:30;;;;;;;28.43;25.67;;;-0.50;99.90;;;;;;4879673;29;20460;-73
2021/03/01 05:14:57;;;;;;;31.63;23.90;;;-0.60;99.90;;;;;;4879602;29;20456;-73
2021/03/01 05:17:23;;;;;;;29.43;24.70;;;-0.80;99.90;;;;;;4879540;29;20482;-73
2021/03/01 05:19:49;;;;;;;28.67;24.87;;;-0.80;99.90;;;;;;4879659;29;20522;-73
2021/03/01 05:22:16;;;;;;;30.60;25.57;;;-0.90;99.90;;;;;;4879145;29;20482;-74
2021/03/01 05:24:42;;;;;;;26.73;23.87;;;-1.00;99.90;;;;;;4879774;29;20456;-74
2021/03/01 05:27:09;;;;;;;26.87;24.00;;;-1.00;99.90;;;;;;4879290;29;20462;-72
2021/03/01 05:29:36;;;;;;;24.90;22.80;;;-1.10;99.90;;;;;;4879303;29;20460;-73
2021/03/01 05:32:04;;;;;;;33.43;26.33;;;-1.10;99.90;;;;;;4879271;29;20447;-74
2021/03/01 05:34:31;;;;;;;27.73;23.97;;;-1.10;99.90;;;;;;4879270;29;20460;-73
2021/03/01 05:36:57;;;;;;;30.23;25.13;;;-1.10;99.90;;;;;;4879151;29;20472;-74
2021/03/01 05:39:23;;;;;;;27.97;25.10;;;-0.80;99.90;;;;;;4878647;29;20451;-73
2021/03/01 05:41:52;;;;;;;30.40;27.40;;;-0.70;99.90;;;;;;4879035;29;20459;-73
2021/03/01 05:44:19;;;;;;;30.37;26.13;;;-0.70;99.90;;;;;;4879147;29;20481;-73
2021/03/01 05:46:47;;;;;;;26.47;23.67;;;-0.70;99.90;;;;;;4879391;29;20463;-73
2021/03/01 05:49:14;;;;;;;30.70;25.50;;;-0.60;99.90;;;;;;4879052;29;20569;-73
2021/03/01 05:51:42;;;;;;;29.93;24.60;;;-0.70;99.90;;;;;;4878952;29;20461;-73
2021/03/01 05:54:13;;;;;;;27.23;24.33;;;-0.80;99.90;;;;;;4879109;29;20463;-73
2021/03/01 05:56:39;;;;;;;29.73;26.77;;;-0.80;99.90;;;;;;4879031;29;20455;-72
2021/03/01 05:59:06;;;;;;;31.83;24.50;;;-0.80;99.90;;;;;;4877934;29;20860;-73
2021/03/01 06:01:33;;;;;;;36.13;26.33;;;-0.80;99.90;;;;;;4878600;29;20818;-73
2021/03/01 06:03:59;;;;;;;35.20;25.40;;;-0.80;99.90;;;;;;4878574;29;20458;-73
2021/03/01 06:06:26;;;;;;;28.23;25.23;;;-0.80;99.90;;;;;;4886650;29;20474;-73
2021/03/01 06:08:52;;;;;;;25.80;23.10;;;-0.90;99.90;;;;;;4886299;29;20998;-73
2021/03/01 06:11:18;;;;;;;32.10;26.13;;;-0.90;99.90;;;;;;4887394;29;20451;-73
2021/03/01 06:13:45;;;;;;;26.63;23.97;;;-0.90;99.90;;;;;;4886045;29;20490;-72
2021/03/01 06:16:11;;;;;;;26.87;23.80;;;-0.70;99.90;;;;;;4897245;29;20463;-72
2021/03/01 06:18:43;;;;;;;27.27;24.67;;;-0.60;99.90;;;;;;4897074;29;20467;-74
2021/03/01 06:21:11;;;;;;;28.57;25.67;;;-0.60;99.90;;;;;;4896983;29;20558;-74
2021/03/01 06:23:40;;;;;;;26.97;24.03;;;-0.60;99.90;;;;;;4896878;29;20800;-72
2021/03/01 06:26:24;;;;;;;27.90;25.17;;;-0.60;99.90;;;;;;4896981;29;20554;-73
2021/03/01 06:28:52;;;;;;;30.60;25.07;;;-0.60;99.90;;;;;;4896954;29;20489;-73
2021/03/01 06:31:41;;;;;;;28.50;25.60;;;-0.60;99.90;;;;;;4896839;29;20464;-73
2021/03/01 06:34:32;;;;;;;29.50;26.30;;;-0.50;99.90;;;;;;4896769;29;20466;-71
2021/03/01 06:37:02;;;;;;;27.70;24.37;;;-0.40;99.90;;;;;;4882510;29;20884;-71
2021/03/01 06:39:31;;;;;;;36.30;25.20;;;-0.40;99.90;;;;;;4896360;29;20479;-71
2021/03/01 06:42:17;;;;;;;24.83;22.30;;;-0.40;99.90;;;;;;4896617;29;20802;-72
2021/03/01 06:44:44;;;;;;;32.53;27.20;;;-0.40;99.90;;;;;;4896798;29;20477;-73
2021/03/01 06:47:10;;;;;;;41.50;31.70;;;0.00;99.90;;;;;;4896922;29;20813;-73
2021/03/01 06:49:39;;;;;;;50.23;35.07;;;0.60;99.90;;;;;;4896450;29;20521;-73
2021/03/01 06:52:06;;;;;;;39.47;33.17;;;1.20;99.90;;;;;;4896291;29;20462;-74
2021/03/01 06:54:33;;;;;;;43.03;34.40;;;2.00;99.90;;;;;;4896387;29;20461;-72
2021/03/01 06:56:59;;;;;;;45.63;32.90;;;2.50;99.90;;;;;;4896684;29;20463;-71
2021/03/01 06:59:25;;;;;;;32.03;28.53;;;2.90;99.90;;;;;;4878758;29;20804;-72
2021/03/01 07:01:53;;;;;;;32.80;26.97;;;3.50;99.90;;;;;;4877572;29;20499;-73
2021/03/01 07:04:22;;;;;;;27.43;24.40;;;3.90;99.90;;;;;;4877331;29;20994;-73
2021/03/01 07:06:48;;;;;;;24.70;22.00;;;4.20;99.90;;;;;;4877191;29;20458;-73
2021/03/01 07:09:15;;;;;;;23.67;21.43;;;4.50;99.90;;;;;;4877072;29;20496;-74
2021/03/01 07:11:43;;;;;;;25.87;22.27;;;5.10;99.90;;;;;;4877363;29;20464;-74
2021/03/01 07:14:11;;;;;;;24.17;21.93;;;5.50;99.90;;;;;;4877326;29;21209;-74
2021/03/01 07:16:40;;;;;;;24.03;21.77;;;5.70;99.90;;;;;;4877479;29;20459;-74
2021/03/01 07:19:08;;;;;;;23.50;21.37;;;6.10;99.90;;;;;;4876979;29;20611;-75
2021/03/01 07:21:36;;;;;;;24.70;22.27;;;6.40;99.90;;;;;;4877039;29;20467;-72
2021/03/01 07:24:04;;;;;;;26.50;21.43;;;6.60;99.90;;;;;;4877378;29;20948;-75
2021/03/01 07:26:30;;;;;;;25.40;23.00;;;7.00;99.90;;;;;;4877465;29;20471;-77
2021/03/01 07:29:05;;;;;;;22.40;20.37;;;7.60;99.90;;;;;;4877249;29;20555;-73
2021/03/01 07:31:34;;;;;;;24.80;22.57;;;7.80;99.90;;;;;;4877081;29;20471;-75
2021/03/01 07:34:03;;;;;;;22.40;20.10;;;8.40;99.90;;;;;;4876949;29;20467;-74
2021/03/01 07:36:30;;;;;;;23.73;21.37;;;8.90;99.90;;;;;;4877018;29;20579;-75
2021/03/01 07:38:58;;;;;;;22.93;20.67;;;9.30;98.40;;;;;;4876900;29;20966;-76
2021/03/01 07:41:24;;;;;;;23.00;20.73;;;9.80;97.20;;;;;;4874676;29;20499;-76
2021/03/01 07:43:51;;;;;;;24.67;21.43;;;10.20;96.30;;;;;;4876649;29;20514;-77
2021/03/01 07:46:18;;;;;;;23.07;20.87;;;10.60;94.50;;;;;;4876805;29;20460;-77
2021/03/01 07:48:45;;;;;;;23.27;21.17;;;10.80;93.30;;;;;;4876656;29;20542;-76
2021/03/01 07:51:12;;;;;;;24.80;22.30;;;10.90;92.60;;;;;;4876907;29;20577;-77
2021/03/01 07:53:46;;;;;;;24.63;22.23;;;11.30;91.70;;;;;;4876602;29;20867;-77
2021/03/01 07:56:51;;;;;;;24.60;22.33;;;11.50;91.30;;;;;;4877087;29;20930;-77
2021/03/01 07:59:32;;;;;;;26.10;23.80;;;11.80;90.30;;;;;;4870796;29;20460;-76
2021/03/01 08:02:21;;;;;;;25.83;23.70;;;12.70;88.40;;;;;;4876740;29;20595;-77
2021/03/01 08:04:47;;;;;;;25.13;22.90;;;12.40;87.00;;;;;;4876372;29;20463;-77
2021/03/01 08:07:13;;;;;;;26.90;24.10;;;11.90;88.10;;;;;;4876595;29;20456;-77
2021/03/01 08:09:44;;;;;;;29.83;23.67;;;12.20;87.70;;;;;;4876387;29;21022;-77
2021/03/01 08:12:11;;;;;;;25.17;23.07;;;12.80;86.50;;;;;;4875681;29;20469;-76
2021/03/01 08:14:57;;;;;;;23.73;21.80;;;13.30;82.10;;;;;;4876223;29;20464;-78
2021/03/01 08:17:32;;;;;;;26.43;23.83;;;14.10;80.50;;;;;;4876584;29;20452;-74
2021/03/01 08:19:59;;;;;;;28.40;25.60;;;14.00;77.60;;;;;;4876473;29;20479;-76
2021/03/01 08:22:25;;;;;;;26.70;23.93;;;14.20;78.00;;;;;;4878058;29;20456;-76
2021/03/01 08:24:52;;;;;;;24.20;22.07;;;14.10;74.80;;;;;;4876523;29;20460;-76
2021/03/01 08:27:41;;;;;;;25.60;23.50;;;13.90;77.50;;;;;;4880167;29;20456;-76
2021/03/01 08:30:24;;;;;;;27.33;24.90;;;14.10;74.80;;;;;;4879984;29;20474;-75
2021/03/01 08:33:22;;;;;;;24.97;22.40;;;14.40;75.30;;;;;;4878514;29;21011;-76
2021/03/01 08:35:50;;;;;;;25.80;23.47;;;14.50;76.30;;;;;;4879884;29;20480;-75
2021/03/01 08:38:17;;;;;;;25.53;23.30;;;14.70;73.80;;;;;;4880348;29;20456;-76
2021/03/01 08:40:52;;;;;;;26.03;23.83;;;15.90;70.40;;;;;;4879951;29;20500;-75
2021/03/01 08:43:31;;;;;;;25.50;23.30;;;14.80;69.00;;;;;;4879833;29;20455;-76
2021/03/01 08:45:57;;;;;;;25.83;23.70;;;15.30;71.60;;;;;;4880215;29;20495;-73
2021/03/01 08:48:25;;;;;;;27.00;24.40;;;16.10;68.40;;;;;;4879735;29;21026;-74
2021/03/01 08:50:52;;;;;;;27.20;24.30;;;15.40;68.50;;;;;;4879768;29;20550;-74
2021/03/01 08:53:22;;;;;;;26.70;23.90;;;15.00;71.70;;;;;;4879782;29;20471;-74
2021/03/01 08:55:48;;;;;;;28.13;25.30;;;15.10;70.80;;;;;;4879814;29;20456;-75
2021/03/01 08:58:15;;;;;;;29.17;26.67;;;16.50;68.60;;;;;;4879502;29;20479;-75
2021/03/01 09:00:50;;;;;;;28.67;25.83;;;17.10;65.00;;;;;;4882068;29;20456;-75
2021/03/01 09:03:18;;;;;;;30.40;27.30;;;17.40;63.30;;;;;;4880317;29;20455;-77
2021/03/01 09:05:47;;;;;;;29.50;26.40;;;18.10;62.30;;;;;;4879737;29;20826;-77
2021/03/01 09:08:14;;;;;;;29.33;26.63;;;18.00;60.70;;;;;;4879525;29;20555;-78
2021/03/01 09:10:42;;;;;;;31.57;27.90;;;18.60;59.10;;;;;;4879651;29;20994;-76
2021/03/01 09:13:10;;;;;;;30.20;27.17;;;18.30;59.10;;;;;;4879787;29;20471;-77
2021/03/01 09:15:37;;;;;;;30.47;27.40;;;18.80;59.00;;;;;;4879631;29;20467;-76
2021/03/01 09:18:06;;;;;;;30.03;27.23;;;19.30;57.20;;;;;;4879556;29;20456;-76
2021/03/01 09:20:43;;;;;;;30.03;26.33;;;19.70;55.90;;;;;;4879367;29;20464;-76
2021/03/01 09:23:11;;;;;;;26.67;24.27;;;20.20;54.50;;;;;;4879615;29;20468;-76
2021/03/01 09:25:38;;;;;;;30.30;27.50;;;20.30;54.20;;;;;;4879427;29;20456;-75
2021/03/01 09:28:06;;;;;;;29.63;27.00;;;19.80;54.60;;;;;;4879236;29;20539;-76
2021/03/01 09:30:33;;;;;;;27.40;25.10;;;20.00;53.90;;;;;;4879224;29;20460;-75
2021/03/01 09:33:02;;;;;;;25.00;22.70;;;19.80;53.00;;;;;;4878949;29;20460;-75
2021/03/01 09:35:32;;;;;;;25.80;23.53;;;19.80;53.60;;;;;;4878987;29;20456;-75
2021/03/01 09:37:58;;;;;;;24.60;22.70;;;19.90;52.60;;;;;;4879572;29;20476;-75
2021/03/01 09:40:27;;;;;;;24.30;22.23;;;19.50;53.20;;;;;;4878978;29;20492;-76
2021/03/01 09:42:56;;;;;;;23.50;21.80;;;19.50;52.90;;;;;;4879318;29;20508;-75
2021/03/01 09:45:23;;;;;;;24.10;22.30;;;19.90;52.40;;;;;;4879197;29;20518;-75
2021/03/01 09:47:51;;;;;;;23.27;21.47;;;20.40;51.30;;;;;;4877299;29;20456;-75
2021/03/01 09:50:19;;;;;;;23.60;21.70;;;20.50;50.80;;;;;;4878794;29;20611;-75
2021/03/01 09:52:47;;;;;;;25.73;23.80;;;20.30;50.80;;;;;;4878830;29;20460;-75
2021/03/01 09:55:14;;;;;;;23.90;22.30;;;21.40;49.50;;;;;;4879054;29;20467;-75
2021/03/01 09:57:41;;;;;;;24.17;22.20;;;21.90;49.20;;;;;;4878688;29;20437;-75
2021/03/01 10:00:25;;;;;;;22.90;21.40;;;22.70;46.60;;;;;;4878578;29;20499;-75
2021/03/01 10:03:02;;;;;;;24.40;22.13;;;22.00;46.60;;;;;;4878554;29;20459;-75
2021/03/01 10:05:30;;;;;;;24.70;22.87;;;21.70;48.40;;;;;;4878711;29;20475;-75
2021/03/01 10:07:59;;;;;;;25.03;22.63;;;21.60;47.10;;;;;;4878762;29;20836;-77
2021/03/01 10:10:33;;;;;;;24.50;22.43;;;21.40;48.00;;;;;;4878599;29;20456;-77
2021/03/01 10:13:01;;;;;;;24.27;22.47;;;20.70;48.50;;;;;;4878416;29;20452;-74
2021/03/01 10:15:27;;;;;;;23.87;22.00;;;20.90;50.00;;;;;;4878385;29;20453;-76
2021/03/01 10:18:07;;;;;;;25.13;23.20;;;21.40;47.40;;;;;;4878545;29;20473;-74
2021/03/01 10:20:45;;;;;;;23.83;22.33;;;21.00;47.40;;;;;;4878311;29;20459;-76
2021/03/01 10:23:11;;;;;;;22.43;20.73;;;21.00;47.20;;;;;;4878653;29;20456;-76
2021/03/01 10:25:40;;;;;;;22.60;21.10;;;20.80;47.70;;;;;;4878414;29;20456;-73
2021/03/01 10:28:27;;;;;;;23.60;22.10;;;21.80;46.40;;;;;;4878311;29;20448;-73
2021/03/01 10:30:59;;;;;;;21.10;19.80;;;22.20;45.60;;;;;;4878198;29;20460;-74
2021/03/01 10:33:25;;;;;;;20.13;18.93;;;21.90;45.80;;;;;;4878153;29;20546;-74
2021/03/01 10:36:06;;;;;;;21.57;20.07;;;22.30;45.60;;;;;;4878037;29;20476;-73
2021/03/01 10:39:14;;;;;;;22.33;20.83;;;22.70;44.30;;;;;;4878294;29;20501;-74
2021/03/01 10:41:43;;;;;;;21.80;20.40;;;23.30;43.60;;;;;;4878150;29;21073;-74
2021/03/01 10:44:12;;;;;;;21.37;19.97;;;22.90;43.20;;;;;;4878108;29;20463;-76
2021/03/01 10:46:42;;;;;;;23.87;22.47;;;23.50;42.70;;;;;;4877884;29;20460;-74
2021/03/01 10:49:21;;;;;;;21.97;20.57;;;24.10;42.10;;;;;;4877887;29;20460;-74
2021/03/01 10:51:49;;;;;;;21.50;20.20;;;23.90;41.30;;;;;;4877973;29;20444;-73
2021/03/01 10:54:15;;;;;;;22.63;20.97;;;23.60;41.00;;;;;;4877940;29;20464;-74
2021/03/01 10:56:41;;;;;;;22.27;20.83;;;23.90;41.40;;;;;;4877800;29;20452;-74
2021/03/01 10:59:08;;;;;;;22.57;21.07;;;23.30;40.90;;;;;;4877560;29;21088;-74
2021/03/01 11:01:40;;;;;;;20.27;18.80;;;23.20;41.30;;;;;;4877345;29;20497;-74
2021/03/01 11:04:08;;;;;;;20.93;19.33;;;23.70;40.10;;;;;;4877016;29;20459;-74
2021/03/01 11:06:34;;;;;;;20.57;19.47;;;23.90;39.40;;;;;;4877098;29;20456;-75
2021/03/01 11:09:01;;;;;;;19.80;18.70;;;24.60;38.80;;;;;;4877408;29;20456;-74
2021/03/01 11:11:27;;;;;;;19.53;18.23;;;25.40;37.80;;;;;;4877522;29;20460;-74
2021/03/01 11:13:54;;;;;;;22.23;20.60;;;24.60;37.80;;;;;;4877252;29;20460;-73
2021/03/01 11:16:20;;;;;;;20.53;19.30;;;25.00;37.70;;;;;;4877146;29;20460;-74
2021/03/01 11:18:47;;;;;;;21.17;19.87;;;26.40;36.60;;;;;;4876888;29;20502;-74
2021/03/01 11:21:13;;;;;;;19.90;18.90;;;26.00;35.10;;;;;;4877465;29;20464;-75
2021/03/01 11:23:40;;;;;;;20.37;19.17;;;25.70;35.90;;;;;;4876873;29;20836;-75
2021/03/01 11:26:06;;;;;;;18.93;17.83;;;26.20;35.00;;;;;;4876788;29;20902;-74
2021/03/01 11:28:32;;;;;;;19.00;18.00;;;26.00;34.70;;;;;;4877215;29;20460;-75
2021/03/01 11:30:58;;;;;;;19.37;18.37;;;24.10;35.70;;;;;;4877258;29;20463;-73
2021/03/01 11:33:24;;;;;;;18.40;17.43;;;24.20;36.40;;;;;;4876877;29;20532;-74
2021/03/01 11:35:54;;;;;;;17.17;16.27;;;23.80;35.10;;;;;;4876538;29;20483;-74
2021/03/01 11:38:21;;;;;;;15.20;14.40;;;23.40;31.30;;;;;;4876616;29;20492;-73
2021/03/01 11:40:47;;;;;;;15.00;14.30;;;20.90;31.20;;;;;;4876894;29;21054;-73
2021/03/01 11:43:14;;;;;;;17.43;16.33;;;20.60;32.00;;;;;;4877466;29;20867;-73
2021/03/01 11:45:40;;;;;;;17.60;16.63;;;19.60;37.80;;;;;;4877269;29;20456;-73
2021/03/01 11:48:10;;;;;;;17.70;16.80;;;20.40;38.80;;;;;;4876932;29;21073;-74
2021/03/01 11:50:36;;;;;;;17.03;16.03;;;21.10;38.00;;;;;;4876940;29;20744;-74
2021/03/01 11:53:03;;;;;;;18.57;17.57;;;21.40;36.90;;;;;;4876563;29;20571;-74
2021/03/01 11:55:29;;;;;;;18.53;17.37;;;21.90;36.80;;;;;;4876738;29;20471;-75
2021/03/01 11:57:55;;;;;;;18.33;17.40;;;21.80;37.00;;;;;;4876281;29;20508;-74
2021/03/01 12:00:23;;;;;;;18.40;17.43;;;22.40;36.00;;;;;;4876604;29;21024;-74
2021/03/01 12:02:49;;;;;;;17.43;16.53;;;22.10;36.50;;;;;;4876818;29;20463;-74
2021/03/01 12:05:15;;;;;;;16.47;15.57;;;23.20;35.50;;;;;;4876849;29;20456;-74
2021/03/01 12:07:42;;;;;;;16.63;15.80;;;24.10;32.00;;;;;;4877051;29;20474;-74
2021/03/01 12:10:10;;;;;;;15.80;15.10;;;23.70;31.60;;;;;;4876870;29;20456;-75
2021/03/01 12:12:36;;;;;;;14.60;14.00;;;22.80;31.40;;;;;;4876875;29;20519;-74
2021/03/01 12:15:03;;;;;;;14.47;13.77;;;21.40;32.40;;;;;;4876675;29;20452;-74
2021/03/01 12:17:29;;;;;;;15.33;14.53;;;19.80;34.40;;;;;;4876751;29;20822;-74
2021/03/01 12:19:55;;;;;;;14.43;13.80;;;19.20;35.70;;;;;;4876741;29;20484;-74
2021/03/01 12:22:21;;;;;;;14.63;13.73;;;19.20;35.70;;;;;;4876597;29;20463;-74
2021/03/01 12:24:47;;;;;;;14.83;14.03;;;19.40;35.70;;;;;;4876518;29;20463;-73
2021/03/01 12:27:14;;;;;;;15.47;14.67;;;19.90;35.10;;;;;;4876651;29;20515;-74
2021/03/01 12:29:41;;;;;;;15.33;14.53;;;20.00;35.00;;;;;;4876625;29;20460;-74
2021/03/01 12:32:07;;;;;;;14.50;13.80;;;20.00;34.90;;;;;;4876733;29;20467;-74
2021/03/01 12:34:36;;;;;;;14.63;14.00;;;20.50;35.20;;;;;;4876585;29;20466;-73
2021/03/01 12:37:02;;;;;;;14.90;14.10;;;21.00;34.20;;;;;;4876396;29;20567;-74
2021/03/01 12:39:28;;;;;;;14.07;13.47;;;21.80;33.90;;;;;;4876085;29;20519;-74